Goliah — WDD5908 — position and weather

sailwx.info

Track history (hours):
 
Tides and Currents Weather Stations Pressure Air Temp Water Temp Dewpoint Dewpoint Depression Visibility Wind Speed Wind Dir Waves Ship Positions

Goliah

Owner: Crowley Marine Services, Seattle, WA. More information available from US FCC via Universal Licensing System and Coast Guard Vessel Documentation Center.

Last reported at 2015-May-23 11:24 UTC. Time now 2015-May-23 11:56 UTC.
Position N 33°44' W 118°12'.

Length 33 m; draft 4.8 m.

Type: Tug. MMSI: 366898250.

Date/timePositionNaut miles runAvg speedWind from/ knotsBaromVisibWave heightAir tempDewpointWater temp
2015-May-23 11:24N 33°44' W 118°12'1 0.8
2015-May-23 10:31N 33°44' W 118°13'1 0.1
2015-May-23 00:33N 33°45' W 118°13'1 0.9
2015-May-22 23:34N 33°46' W 118°13'2 2.3
2015-May-22 22:33N 33°44' W 118°12'2 1.8
2015-May-22 21:33N 33°45' W 118°13'2 2.3
2015-May-22 20:33N 33°44' W 118°10'5 2.1
2015-May-22 18:04N 33°44' W 118°17'3 0.5
2015-May-22 11:33N 33°46' W 118°13'0 0.4
2015-May-22 10:33N 33°45' W 118°13'1 0.2
2015-May-22 02:16N 33°44' W 118°14'2 2.6
2015-May-22 01:23N 33°45' W 118°16'0 0.5
2015-May-22 00:33N 33°45' W 118°16'1 0.8
2015-May-21 23:04N 33°44' W 118°17'0 0.0
2015-May-21 20:22N 33°44' W 118°17'0 0.0
2015-May-21 19:31N 33°44' W 118°17'0 0.0
2015-May-21 16:16N 33°44' W 118°17'2 0.1
2015-May-20 22:33N 33°45' W 118°14'2 1.8
2015-May-20 21:33N 33°44' W 118°12'3 2.1
2015-May-20 20:13N 33°43' W 118°16'0 0.1
2015-May-20 19:33N 33°43' W 118°16'2 0.4
2015-May-20 13:33N 33°46' W 118°15'2 0.2
2015-May-20 01:03N 33°44' W 118°17'0 0.0
2015-May-20 00:25N 33°44' W 118°17'0 0.0
2015-May-19 23:29N 33°44' W 118°17'0 0.0
2015-May-19 22:31N 33°44' W 118°17'1 1.3
2015-May-19 21:28N 33°44' W 118°15'1 0.6
2015-May-19 19:21N 33°44' W 118°17'5 1.4
2015-May-19 16:03N 33°43' W 118°11'2 4.8
2015-May-19 15:33N 33°45' W 118°13'3 0.2
2015-May-18 18:23N 33°44' W 118°16'0 0.0
2015-May-18 17:25N 33°44' W 118°16'1 0.3
2015-May-18 15:31N 33°44' W 118°17'0 0.0
2015-May-17 18:14N 33°44' W 118°17'0 0.0
2015-May-17 17:32N 33°44' W 118°17'0 0.0
2015-May-17 16:31N 33°44' W 118°17'0 0.0
2015-May-17 00:30N 33°44' W 118°17'0 0.0
2015-May-16 20:17N 33°44' W 118°17'0 0.0
2015-May-16 19:21N 33°44' W 118°17'0 0.0
2015-May-16 18:29N 33°44' W 118°17'0 0.0
2015-May-16 16:05N 33°44' W 118°17'  
Track history (hours):
 
Tides and Currents Weather Stations Pressure Air Temp Water Temp Dewpoint Dewpoint Depression Visibility Wind Speed Wind Dir Waves Ship Positions

Goliah

Owner: Crowley Marine Services, Seattle, WA. More information available from US FCC via Universal Licensing System and Coast Guard Vessel Documentation Center.

Last reported at 2015-May-23 11:24 UTC. Time now 2015-May-23 11:56 UTC.
Position N 33°44' W 118°12'.

Length 33 m; draft 4.8 m.

Type: Tug. MMSI: 366898250.

Date/timePositionNaut miles runAvg speedWind from/ knotsBaromVisibWave heightAir tempDewpointWater temp
2015-May-23 11:24N 33°44' W 118°12'1 0.8
2015-May-23 10:31N 33°44' W 118°13'1 0.1
2015-May-23 00:33N 33°45' W 118°13'1 0.9
2015-May-22 23:34N 33°46' W 118°13'2 2.3
2015-May-22 22:33N 33°44' W 118°12'2 1.8
2015-May-22 21:33N 33°45' W 118°13'2 2.3
2015-May-22 20:33N 33°44' W 118°10'5 2.1
2015-May-22 18:04N 33°44' W 118°17'3 0.5
2015-May-22 11:33N 33°46' W 118°13'0 0.4
2015-May-22 10:33N 33°45' W 118°13'1 0.2
2015-May-22 02:16N 33°44' W 118°14'2 2.6
2015-May-22 01:23N 33°45' W 118°16'0 0.5
2015-May-22 00:33N 33°45' W 118°16'1 0.8
2015-May-21 23:04N 33°44' W 118°17'0 0.0
2015-May-21 20:22N 33°44' W 118°17'0 0.0
2015-May-21 19:31N 33°44' W 118°17'0 0.0
2015-May-21 16:16N 33°44' W 118°17'2 0.1
2015-May-20 22:33N 33°45' W 118°14'2 1.8
2015-May-20 21:33N 33°44' W 118°12'3 2.1
2015-May-20 20:13N 33°43' W 118°16'0 0.1
2015-May-20 19:33N 33°43' W 118°16'2 0.4
2015-May-20 13:33N 33°46' W 118°15'2 0.2
2015-May-20 01:03N 33°44' W 118°17'0 0.0
2015-May-20 00:25N 33°44' W 118°17'0 0.0
2015-May-19 23:29N 33°44' W 118°17'0 0.0
2015-May-19 22:31N 33°44' W 118°17'1 1.3
2015-May-19 21:28N 33°44' W 118°15'1 0.6
2015-May-19 19:21N 33°44' W 118°17'5 1.4
2015-May-19 16:03N 33°43' W 118°11'2 4.8
2015-May-19 15:33N 33°45' W 118°13'3 0.2
2015-May-18 18:23N 33°44' W 118°16'0 0.0
2015-May-18 17:25N 33°44' W 118°16'1 0.3
2015-May-18 15:31N 33°44' W 118°17'0 0.0
2015-May-17 18:14N 33°44' W 118°17'0 0.0
2015-May-17 17:32N 33°44' W 118°17'0 0.0
2015-May-17 16:31N 33°44' W 118°17'0 0.0
2015-May-17 00:30N 33°44' W 118°17'0 0.0
2015-May-16 20:17N 33°44' W 118°17'0 0.0
2015-May-16 19:21N 33°44' W 118°17'0 0.0
2015-May-16 18:29N 33°44' W 118°17'0 0.0
2015-May-16 16:05N 33°44' W 118°17'  

Dump ship's entire track history